sensor_id;sensor_type;location;lat;lon;timestamp;pressure;altitude;pressure_sealevel;temperature;humidity
38253;BME280;24785;52.372;20.672;2023-01-16T00:00:30;99542.75;;;3.02;100.00
38253;BME280;24785;52.372;20.672;2023-01-16T00:10:51;99549.59;;;2.81;100.00
38253;BME280;24785;52.372;20.672;2023-01-16T00:20:52;99548.69;;;2.53;100.00
38253;BME280;24785;52.372;20.672;2023-01-16T00:30:53;99541.41;;;2.27;100.00
38253;BME280;24785;52.372;20.672;2023-01-16T00:40:54;99541.41;;;2.10;100.00
38253;BME280;24785;52.372;20.672;2023-01-16T00:50:54;99547.81;;;1.98;100.00
38253;BME280;24785;52.372;20.672;2023-01-16T01:00:55;99540.91;;;1.97;100.00
38253;BME280;24785;52.372;20.672;2023-01-16T01:10:56;99556.81;;;1.85;100.00
38253;BME280;24785;52.372;20.672;2023-01-16T01:20:57;99552.28;;;1.69;100.00
38253;BME280;24785;52.372;20.672;2023-01-16T01:31:02;99542.91;;;1.61;100.00
38253;BME280;24785;52.372;20.672;2023-01-16T01:41:04;99519.53;;;1.53;100.00
38253;BME280;24785;52.372;20.672;2023-01-16T01:51:29;99526.66;;;1.41;100.00
38253;BME280;24785;52.372;20.672;2023-01-16T02:01:29;99516.84;;;1.24;100.00
38253;BME280;24785;52.372;20.672;2023-01-16T02:42:53;99483.59;;;0.72;100.00
38253;BME280;24785;52.372;20.672;2023-01-16T02:53:19;99473.09;;;0.60;100.00
38253;BME280;24785;52.372;20.672;2023-01-16T03:14:09;99478.72;;;0.52;100.00
38253;BME280;24785;52.372;20.672;2023-01-16T03:44:38;99467.59;;;0.50;100.00
38253;BME280;24785;52.372;20.672;2023-01-16T03:54:42;99475.72;;;0.48;100.00
38253;BME280;24785;52.372;20.672;2023-01-16T04:05:05;99469.66;;;0.48;100.00
38253;BME280;24785;52.372;20.672;2023-01-16T04:15:08;99474.34;;;0.46;100.00
38253;BME280;24785;52.372;20.672;2023-01-16T04:25:09;99475.59;;;0.31;100.00
38253;BME280;24785;52.372;20.672;2023-01-16T04:35:11;99467.94;;;0.18;100.00
38253;BME280;24785;52.372;20.672;2023-01-16T04:45:11;99466.78;;;0.14;100.00
38253;BME280;24785;52.372;20.672;2023-01-16T04:55:13;99478.59;;;0.23;100.00
38253;BME280;24785;52.372;20.672;2023-01-16T05:05:14;99478.69;;;0.28;100.00
38253;BME280;24785;52.372;20.672;2023-01-16T05:15:15;99491.88;;;0.28;100.00
38253;BME280;24785;52.372;20.672;2023-01-16T05:25:16;99474.47;;;0.27;100.00
38253;BME280;24785;52.372;20.672;2023-01-16T05:35:17;99455.44;;;0.25;100.00
38253;BME280;24785;52.372;20.672;2023-01-16T05:45:18;99443.41;;;0.18;100.00
38253;BME280;24785;52.372;20.672;2023-01-16T05:55:19;99454.66;;;0.13;100.00
38253;BME280;24785;52.372;20.672;2023-01-16T06:05:19;99451.31;;;0.06;100.00
38253;BME280;24785;52.372;20.672;2023-01-16T06:15:20;99443.50;;;-0.01;100.00
38253;BME280;24785;52.372;20.672;2023-01-16T06:25:21;99451.41;;;-0.12;100.00
38253;BME280;24785;52.372;20.672;2023-01-16T06:35:22;99465.94;;;-0.10;100.00
38253;BME280;24785;52.372;20.672;2023-01-16T06:45:24;99461.94;;;-0.01;100.00
38253;BME280;24785;52.372;20.672;2023-01-16T06:55:25;99453.50;;;0.09;100.00
38253;BME280;24785;52.372;20.672;2023-01-16T07:05:27;99467.03;;;0.24;100.00
38253;BME280;24785;52.372;20.672;2023-01-16T07:15:28;99465.19;;;0.37;100.00
38253;BME280;24785;52.372;20.672;2023-01-16T07:25:48;99457.47;;;0.47;100.00
38253;BME280;24785;52.372;20.672;2023-01-16T07:35:51;99457.50;;;0.58;100.00
38253;BME280;24785;52.372;20.672;2023-01-16T07:45:52;99448.53;;;0.71;100.00
38253;BME280;24785;52.372;20.672;2023-01-16T07:55:55;99457.63;;;0.92;100.00
38253;BME280;24785;52.372;20.672;2023-01-16T08:05:57;99467.09;;;1.16;100.00
38253;BME280;24785;52.372;20.672;2023-01-16T08:15:58;99462.19;;;1.37;100.00
38253;BME280;24785;52.372;20.672;2023-01-16T08:25:58;99466.25;;;1.56;100.00
38253;BME280;24785;52.372;20.672;2023-01-16T08:36:02;99469.44;;;1.58;100.00
38253;BME280;24785;52.372;20.672;2023-01-16T08:46:04;99466.72;;;1.53;100.00
38253;BME280;24785;52.372;20.672;2023-01-16T08:56:26;99463.53;;;1.51;100.00
38253;BME280;24785;52.372;20.672;2023-01-16T09:06:27;99452.81;;;1.57;100.00
38253;BME280;24785;52.372;20.672;2023-01-16T09:16:28;99445.16;;;1.89;100.00
38253;BME280;24785;52.372;20.672;2023-01-16T09:26:29;99422.69;;;2.26;100.00
38253;BME280;24785;52.372;20.672;2023-01-16T09:36:31;99420.34;;;2.68;100.00
38253;BME280;24785;52.372;20.672;2023-01-16T09:46:36;99421.00;;;3.02;100.00
38253;BME280;24785;52.372;20.672;2023-01-16T09:56:41;99410.50;;;3.34;100.00
38253;BME280;24785;52.372;20.672;2023-01-16T10:17:38;99382.13;;;3.98;100.00
38253;BME280;24785;52.372;20.672;2023-01-16T10:38:14;99356.75;;;4.07;100.00
38253;BME280;24785;52.372;20.672;2023-01-16T10:48:17;99349.09;;;4.16;100.00
38253;BME280;24785;52.372;20.672;2023-01-16T10:58:37;99339.91;;;4.29;100.00
38253;BME280;24785;52.372;20.672;2023-01-16T11:08:43;99325.06;;;4.38;100.00
38253;BME280;24785;52.372;20.672;2023-01-16T11:18:44;99303.63;;;4.50;100.00
38253;BME280;24785;52.372;20.672;2023-01-16T11:28:48;99289.88;;;4.63;100.00
38253;BME280;24785;52.372;20.672;2023-01-16T11:38:49;99263.06;;;4.64;100.00
38253;BME280;24785;52.372;20.672;2023-01-16T11:48:58;99240.50;;;4.67;100.00
38253;BME280;24785;52.372;20.672;2023-01-16T12:09:52;99215.06;;;4.81;100.00
38253;BME280;24785;52.372;20.672;2023-01-16T13:00:43;99144.19;;;4.36;100.00
38253;BME280;24785;52.372;20.672;2023-01-16T13:10:52;99132.78;;;4.56;100.00
38253;BME280;24785;52.372;20.672;2023-01-16T13:21:21;99115.81;;;4.57;100.00
38253;BME280;24785;52.372;20.672;2023-01-16T13:31:27;99122.44;;;4.54;100.00
38253;BME280;24785;52.372;20.672;2023-01-16T13:41:37;99112.31;;;4.16;100.00
38253;BME280;24785;52.372;20.672;2023-01-16T13:51:41;99108.56;;;3.86;100.00
38253;BME280;24785;52.372;20.672;2023-01-16T14:11:59;99074.66;;;3.88;100.00
38253;BME280;24785;52.372;20.672;2023-01-16T14:22:03;99071.91;;;3.58;100.00
38253;BME280;24785;52.372;20.672;2023-01-16T14:42:18;99066.13;;;3.03;100.00
38253;BME280;24785;52.372;20.672;2023-01-16T15:03:08;99039.38;;;2.20;100.00
38253;BME280;24785;52.372;20.672;2023-01-16T15:13:28;99034.44;;;1.97;100.00
38253;BME280;24785;52.372;20.672;2023-01-16T15:23:55;99013.88;;;1.77;100.00
38253;BME280;24785;52.372;20.672;2023-01-16T15:34:18;99010.56;;;1.60;100.00
38253;BME280;24785;52.372;20.672;2023-01-16T15:44:27;98986.56;;;1.40;100.00
38253;BME280;24785;52.372;20.672;2023-01-16T15:54:47;98968.41;;;1.16;100.00
38253;BME280;24785;52.372;20.672;2023-01-16T16:04:51;98955.28;;;1.00;100.00
38253;BME280;24785;52.372;20.672;2023-01-16T16:35:33;98896.38;;;1.43;100.00
38253;BME280;24785;52.372;20.672;2023-01-16T16:45:34;98884.38;;;1.99;100.00
38253;BME280;24785;52.372;20.672;2023-01-16T16:55:38;98874.00;;;2.35;100.00
38253;BME280;24785;52.372;20.672;2023-01-16T17:05:39;98861.16;;;2.64;100.00
38253;BME280;24785;52.372;20.672;2023-01-16T17:15:41;98850.91;;;2.82;100.00
38253;BME280;24785;52.372;20.672;2023-01-16T17:25:43;98841.72;;;3.10;100.00
38253;BME280;24785;52.372;20.672;2023-01-16T17:35:46;98826.34;;;3.12;100.00
38253;BME280;24785;52.372;20.672;2023-01-16T17:45:50;98808.63;;;3.18;100.00
38253;BME280;24785;52.372;20.672;2023-01-16T17:55:54;98784.81;;;3.18;100.00
38253;BME280;24785;52.372;20.672;2023-01-16T18:06:02;98774.22;;;3.23;100.00
38253;BME280;24785;52.372;20.672;2023-01-16T18:16:05;98752.75;;;3.30;100.00
38253;BME280;24785;52.372;20.672;2023-01-16T18:26:33;98748.28;;;3.25;100.00
38253;BME280;24785;52.372;20.672;2023-01-16T18:36:33;98739.53;;;3.25;100.00
38253;BME280;24785;52.372;20.672;2023-01-16T18:46:34;98725.22;;;3.31;100.00
38253;BME280;24785;52.372;20.672;2023-01-16T18:56:55;98710.97;;;3.32;100.00
38253;BME280;24785;52.372;20.672;2023-01-16T19:07:18;98694.28;;;3.36;100.00
38253;BME280;24785;52.372;20.672;2023-01-16T19:17:25;98657.47;;;3.35;100.00
38253;BME280;24785;52.372;20.672;2023-01-16T19:27:26;98656.09;;;3.53;100.00
38253;BME280;24785;52.372;20.672;2023-01-16T19:37:27;98634.94;;;3.47;100.00
38253;BME280;24785;52.372;20.672;2023-01-16T19:47:30;98608.97;;;3.44;100.00
38253;BME280;24785;52.372;20.672;2023-01-16T19:57:31;98595.75;;;3.44;100.00
38253;BME280;24785;52.372;20.672;2023-01-16T20:07:32;98578.53;;;3.42;100.00
38253;BME280;24785;52.372;20.672;2023-01-16T20:17:36;98545.97;;;3.41;100.00
38253;BME280;24785;52.372;20.672;2023-01-16T20:27:39;98516.34;;;3.39;100.00
38253;BME280;24785;52.372;20.672;2023-01-16T20:37:41;98494.09;;;3.40;100.00
38253;BME280;24785;52.372;20.672;2023-01-16T20:47:42;98472.91;;;3.40;100.00
38253;BME280;24785;52.372;20.672;2023-01-16T20:57:43;98457.50;;;3.47;100.00
38253;BME280;24785;52.372;20.672;2023-01-16T21:07:44;98440.06;;;3.41;100.00
38253;BME280;24785;52.372;20.672;2023-01-16T21:17:45;98412.53;;;3.42;100.00
38253;BME280;24785;52.372;20.672;2023-01-16T21:28:05;98408.03;;;3.43;100.00
38253;BME280;24785;52.372;20.672;2023-01-16T21:38:05;98382.84;;;3.45;100.00
38253;BME280;24785;52.372;20.672;2023-01-16T21:48:10;98372.78;;;3.47;100.00
38253;BME280;24785;52.372;20.672;2023-01-16T21:58:11;98359.91;;;3.65;100.00
38253;BME280;24785;52.372;20.672;2023-01-16T22:08:12;98334.03;;;3.57;100.00
38253;BME280;24785;52.372;20.672;2023-01-16T22:18:13;98331.06;;;3.63;100.00
38253;BME280;24785;52.372;20.672;2023-01-16T22:28:20;98312.47;;;3.68;100.00
38253;BME280;24785;52.372;20.672;2023-01-16T22:38:21;98300.00;;;3.69;100.00
38253;BME280;24785;52.372;20.672;2023-01-16T22:48:22;98293.25;;;3.58;100.00
38253;BME280;24785;52.372;20.672;2023-01-16T22:58:23;98287.56;;;3.40;100.00
38253;BME280;24785;52.372;20.672;2023-01-16T23:08:24;98285.78;;;3.31;100.00
38253;BME280;24785;52.372;20.672;2023-01-16T23:18:25;98269.06;;;3.06;100.00
38253;BME280;24785;52.372;20.672;2023-01-16T23:28:26;98257.16;;;3.04;100.00
38253;BME280;24785;52.372;20.672;2023-01-16T23:38:27;98241.06;;;3.00;100.00
38253;BME280;24785;52.372;20.672;2023-01-16T23:48:28;98215.81;;;2.79;100.00
38253;BME280;24785;52.372;20.672;2023-01-16T23:58:28;98200.22;;;2.77;100.00
